Crown Of Scandinavia — OXRA6 — position and weather

sailwx.info

Track history (hours):
 
Tides and Currents Weather Stations Pressure Air Temp Water Temp Dewpoint Dewpoint Depression Visibility Wind Speed Wind Dir Waves Ship Positions

Crown Of Scandinavia

Last reported at 2017-Jul-27 02:30 UTC. Time now 2017-Jul-27 02:37 UTC.
Position N 56°54' E 012°04'.

Length 171 m; draft 6.3 m.

Type: Ship. MMSI: 219592000.

Date/timePositionNaut miles runAvg speedWind from/ knotsBaromVisibWave heightAir tempDewpointWater temp
2017-Jul-27 02:30N 56°54' E 012°04'916.5
2017-Jul-27 01:58N 57°02' E 011°58'817.0
2017-Jul-27 01:31N 57°10' E 011°54'816.8
2017-Jul-27 01:00N 57°18' E 011°48'816.9
2017-Jul-27 00:30N 57°25' E 011°40'816.9
2017-Jul-27 00:00N 57°32' E 011°30'917.0
2017-Jul-26 23:30N 57°39' E 011°22'917.1
2017-Jul-26 23:00N 57°46' E 011°14'816.7
2017-Jul-26 22:30N 57°54' E 011°06'816.1
2017-Jul-26 21:59N 58°01' E 010°58'817.0
2017-Jul-26 21:30N 58°08' E 010°52'816.8
2017-Jul-26 21:00N 58°16' E 010°47'2615.5
2017-Jul-26 19:20N 58°42' E 010°35'516.4
2017-Jul-26 19:00N 58°47' E 010°35'816.9
2017-Jul-26 18:30N 58°55' E 010°36'816.7
2017-Jul-26 18:00N 59°04' E 010°37'816.8
2017-Jul-26 17:30N 59°12' E 010°38'816.9
2017-Jul-26 17:00N 59°20' E 010°35'816.7
2017-Jul-26 16:30N 59°29' E 010°34'816.3
2017-Jul-26 16:00N 59°36' E 010°38'714.2
2017-Jul-26 15:30N 59°43' E 010°34'715.1
2017-Jul-26 15:00N 59°51' E 010°37'5 5.2
2017-Jul-26 14:00N 59°54' E 010°45'0 0.0
2017-Jul-26 13:30N 59°54' E 010°45'0 0.0
2017-Jul-26 13:00N 59°54' E 010°45'0 0.0
2017-Jul-26 12:30N 59°54' E 010°45'0 0.0
2017-Jul-26 12:00N 59°54' E 010°45'0 0.0
2017-Jul-26 11:30N 59°54' E 010°45'0 0.0
2017-Jul-26 11:00N 59°54' E 010°45'0 0.0
2017-Jul-26 10:30N 59°54' E 010°45'0 0.0
2017-Jul-26 10:00N 59°54' E 010°45'0 0.0
2017-Jul-26 09:30N 59°54' E 010°45'0 0.0
2017-Jul-26 09:00N 59°54' E 010°45'0 0.0
2017-Jul-26 08:30N 59°54' E 010°45'0 0.0
2017-Jul-26 08:00N 59°54' E 010°45'0 0.6
2017-Jul-26 07:30N 59°54' E 010°44'612.6
2017-Jul-26 07:00N 59°49' E 010°35'714.4
2017-Jul-26 06:30N 59°42' E 010°36'714.3
2017-Jul-26 06:00N 59°35' E 010°38'815.1
2017-Jul-26 05:30N 59°28' E 010°34'815.0
2017-Jul-26 05:00N 59°21' E 010°36'815.4
2017-Jul-26 04:30N 59°13' E 010°38'815.4
2017-Jul-26 04:00N 59°05' E 010°40'815.6
2017-Jul-26 03:30N 58°58' E 010°42'815.7
2017-Jul-26 03:00N 58°50' E 010°44'815.7
2017-Jul-26 02:30N 58°42' E 010°45'816.3
2017-Jul-26 02:00N 58°34' E 010°50'917.7
2017-Jul-26 01:30N 58°26' E 010°55'917.3
2017-Jul-26 01:00N 58°18' E 011°00'917.2
2017-Jul-26 00:30N 58°09' E 011°06'917.0
2017-Jul-25 23:59N 58°01' E 011°10'816.9
2017-Jul-25 23:30N 57°53' E 011°14'816.8
2017-Jul-25 23:00N 57°45' E 011°19'816.6
2017-Jul-25 22:30N 57°37' E 011°24'816.4
2017-Jul-25 22:00N 57°29' E 011°28'816.7
2017-Jul-25 21:30N 57°21' E 011°33'916.7
2017-Jul-25 20:59N 57°13' E 011°38'816.6
2017-Jul-25 20:30N 57°05' E 011°42'5516.0
2017-Jul-25 17:06N 56°16' E 012°24'116.0
2017-Jul-25 17:00N 56°15' E 012°25'816.8
2017-Jul-25 16:30N 56°07' E 012°32'816.6
2017-Jul-25 16:00N 56°01' E 012°41'815.8
2017-Jul-25 15:30N 55°53' E 012°44'815.2
2017-Jul-25 15:00N 55°45' E 012°42'5 4.7
2017-Jul-25 14:00N 55°42' E 012°36'0 0.0
2017-Jul-25 13:30N 55°42' E 012°36'0 0.0
2017-Jul-25 13:00N 55°42' E 012°36'0 0.0
2017-Jul-25 12:30N 55°42' E 012°36'0 0.0
2017-Jul-25 12:00N 55°42' E 012°36'0 0.0
2017-Jul-25 11:27N 55°42' E 012°36'0 0.0
2017-Jul-25 11:00N 55°42' E 012°36'0 0.0
2017-Jul-25 10:30N 55°42' E 012°36'0 0.0
2017-Jul-25 10:00N 55°42' E 012°36'0 0.0
2017-Jul-25 09:30N 55°42' E 012°36'0 0.0
2017-Jul-25 09:00N 55°42' E 012°36'0 0.0
2017-Jul-25 08:30N 55°42' E 012°36'0 0.0
2017-Jul-25 08:00N 55°42' E 012°36'0 0.5
2017-Jul-25 07:30N 55°42' E 012°36'510.7
2017-Jul-25 07:00N 55°47' E 012°42'815.2
2017-Jul-25 06:30N 55°54' E 012°39'815.8
2017-Jul-25 06:00N 56°02' E 012°39'714.6
2017-Jul-25 05:30N 56°08' E 012°31'815.0
2017-Jul-25 05:00N 56°15' E 012°25'916.9
2017-Jul-25 04:30N 56°23' E 012°21'1016.8
2017-Jul-25 03:54N 56°32' E 012°15'1417.1
2017-Jul-25 03:03N 56°46' E 012°08'116.9
2017-Jul-25 03:00N 56°47' E 012°08'1316.7
2017-Jul-25 02:13N 56°59' E 011°59'1416.9
2017-Jul-25 01:23N 57°13' E 011°53'616.5
2017-Jul-25 01:00N 57°18' E 011°47'816.2
2017-Jul-25 00:30N 57°25' E 011°40'816.6
2017-Jul-25 00:00N 57°33' E 011°32'816.8
2017-Jul-24 23:30N 57°40' E 011°26'917.2
2017-Jul-24 23:00N 57°49' E 011°22'917.2
2017-Jul-24 22:30N 57°57' E 011°17'916.2
2017-Jul-24 21:58N 58°05' E 011°11'715.8
2017-Jul-24 21:31N 58°12' E 011°06'815.5
2017-Jul-24 21:00N 58°19' E 011°00'815.4
2017-Jul-24 20:30N 58°26' E 010°54'815.8
2017-Jul-24 20:00N 58°34' E 010°51'915.6
2017-Jul-24 19:26N 58°42' E 010°45'716.2
2017-Jul-24 19:00N 58°49' E 010°43'816.7
2017-Jul-24 18:30N 58°57' E 010°41'816.4
2017-Jul-24 18:00N 59°05' E 010°39'816.3
2017-Jul-24 17:30N 59°13' E 010°37'816.4
2017-Jul-24 17:00N 59°22' E 010°35'816.2
2017-Jul-24 16:30N 59°30' E 010°34'816.0
2017-Jul-24 16:00N 59°37' E 010°38'17 5.7
2017-Jul-24 13:00N 59°54' E 010°45'0 0.0
2017-Jul-24 12:30N 59°54' E 010°45'0 0.0
2017-Jul-24 12:00N 59°54' E 010°45'0 0.0
2017-Jul-24 11:30N 59°54' E 010°45'0 0.0
2017-Jul-24 11:00N 59°54' E 010°45'0 0.0
2017-Jul-24 10:30N 59°54' E 010°45'0 0.0
2017-Jul-24 10:00N 59°54' E 010°45'0 0.0
2017-Jul-24 09:30N 59°54' E 010°45'0 0.0
2017-Jul-24 09:00N 59°54' E 010°45'0 0.0
2017-Jul-24 08:30N 59°54' E 010°45'0 0.0
2017-Jul-24 08:00N 59°54' E 010°45'1 1.1
2017-Jul-24 07:30N 59°54' E 010°44'713.8
2017-Jul-24 07:00N 59°49' E 010°35'714.9
2017-Jul-24 06:31N 59°41' E 010°36'714.6
2017-Jul-24 06:00N 59°34' E 010°38'815.6
2017-Jul-24 05:30N 59°27' E 010°34'815.9
2017-Jul-24 05:00N 59°19' E 010°36'816.1
2017-Jul-24 04:30N 59°11' E 010°39'816.1
2017-Jul-24 04:00N 59°03' E 010°41'816.1
2017-Jul-24 03:31N 58°55' E 010°43'815.8
2017-Jul-24 03:00N 58°47' E 010°44'815.5
2017-Jul-24 02:30N 58°39' E 010°46'816.1
2017-Jul-24 02:00N 58°32' E 010°51'816.1
2017-Jul-24 01:30N 58°24' E 010°56'815.9
2017-Jul-24 01:00N 58°16' E 011°01'916.5
2017-Jul-24 00:29N 58°08' E 011°06'816.5
2017-Jul-24 00:00N 58°01' E 011°11'916.5
2017-Jul-23 23:28N 57°52' E 011°15'817.0
2017-Jul-23 23:00N 57°45' E 011°18'816.3
2017-Jul-23 22:30N 57°37' E 011°23'816.3
2017-Jul-23 22:00N 57°29' E 011°28'816.6
2017-Jul-23 21:30N 57°21' E 011°33'816.8
2017-Jul-23 21:00N 57°13' E 011°38'5516.5
2017-Jul-23 17:38N 56°22' E 012°16'817.0
2017-Jul-23 17:10N 56°15' E 012°23'317.9
2017-Jul-23 17:00N 56°13' E 012°26'918.6
2017-Jul-23 16:30N 56°05' E 012°36'816.9
2017-Jul-23 16:00N 55°58' E 012°43'815.9
2017-Jul-23 15:30N 55°50' E 012°44'714.8
2017-Jul-23 15:01N 55°43' E 012°39'2 3.4
2017-Jul-23 14:29N 55°42' E 012°36'0 0.0
2017-Jul-23 13:59N 55°42' E 012°36'0 0.0
2017-Jul-23 13:29N 55°42' E 012°36'0 0.0
2017-Jul-23 12:59N 55°42' E 012°36'0 0.0
2017-Jul-23 12:29N 55°42' E 012°36'0 0.0
2017-Jul-23 11:59N 55°42' E 012°36'0 0.0
2017-Jul-23 11:29N 55°42' E 012°36'0 0.0
2017-Jul-23 10:59N 55°42' E 012°36'0 0.0
2017-Jul-23 10:29N 55°42' E 012°36'0 0.0
2017-Jul-23 09:59N 55°42' E 012°36'0 0.0
2017-Jul-23 09:29N 55°42' E 012°36'0 0.0
2017-Jul-23 08:59N 55°42' E 012°36'0 0.0
2017-Jul-23 08:29N 55°42' E 012°36'0 0.0
2017-Jul-23 07:59N 55°42' E 012°36'2 3.8
2017-Jul-23 07:30N 55°43' E 012°38'714.4
2017-Jul-23 07:00N 55°50' E 012°41'815.3
2017-Jul-23 06:31N 55°58' E 012°40'714.6
2017-Jul-23 06:00N 56°05' E 012°36'713.7
2017-Jul-23 05:30N 56°10' E 012°28'714.0
2017-Jul-23 05:00N 56°17' E 012°24'915.2
2017-Jul-23 04:26N 56°25' E 012°19'716.1
2017-Jul-23 04:00N 56°32' E 012°16'816.3
2017-Jul-23 03:30N 56°39' E 012°11'816.7
2017-Jul-23 03:00N 56°47' E 012°06'2616.6
2017-Jul-23 01:27N 57°12' E 011°53'716.2
2017-Jul-23 01:00N 57°19' E 011°47'816.3
2017-Jul-23 00:30N 57°26' E 011°40'816.7
2017-Jul-23 00:00N 57°33' E 011°33'816.8
2017-Jul-22 23:30N 57°41' E 011°28'816.5
2017-Jul-22 23:00N 57°49' E 011°22'816.4
2017-Jul-22 22:30N 57°57' E 011°17'815.8
2017-Jul-22 22:00N 58°04' E 011°12'815.9
2017-Jul-22 21:30N 58°12' E 011°06'816.4
2017-Jul-22 21:00N 58°19' E 011°01'915.8
2017-Jul-22 20:28N 58°27' E 010°56'716.0
2017-Jul-22 20:00N 58°34' E 010°51'816.5
2017-Jul-22 19:30N 58°42' E 010°46'917.1
2017-Jul-22 19:00N 58°50' E 010°44'917.0
2017-Jul-22 18:30N 58°59' E 010°42'817.0
2017-Jul-22 18:00N 59°07' E 010°39'816.9
2017-Jul-22 17:30N 59°15' E 010°37'816.9
2017-Jul-22 17:00N 59°24' E 010°34'816.5
2017-Jul-22 16:30N 59°32' E 010°36'815.2
2017-Jul-22 16:00N 59°40' E 010°37'713.8
2017-Jul-22 15:30N 59°46' E 010°34'815.7
2017-Jul-22 15:01N 59°53' E 010°40'2 2.3
2017-Jul-22 14:00N 59°54' E 010°45'0 0.0
2017-Jul-22 13:29N 59°54' E 010°45'0 0.0
2017-Jul-22 12:56N 59°54' E 010°45'0 0.0
2017-Jul-22 12:29N 59°54' E 010°45'0 0.0
2017-Jul-22 11:59N 59°54' E 010°45'0 0.0
2017-Jul-22 11:29N 59°54' E 010°45'0 0.0
2017-Jul-22 10:59N 59°54' E 010°45'0 0.0
2017-Jul-22 10:29N 59°54' E 010°45'0 0.0
2017-Jul-22 09:59N 59°54' E 010°45'0 0.0
2017-Jul-22 09:29N 59°54' E 010°45'0 0.0
2017-Jul-22 08:59N 59°54' E 010°45'0 0.0
2017-Jul-22 08:29N 59°54' E 010°45'0 0.0
2017-Jul-22 07:59N 59°54' E 010°45'1 2.8
2017-Jul-22 07:30N 59°54' E 010°42'714.7
2017-Jul-22 07:00N 59°48' E 010°35'714.6
2017-Jul-22 06:30N 59°40' E 010°37'714.8
2017-Jul-22 06:00N 59°33' E 010°37'815.7
2017-Jul-22 05:30N 59°25' E 010°34'815.4
2017-Jul-22 05:00N 59°18' E 010°37'815.4
2017-Jul-22 04:30N 59°10' E 010°39'815.3
2017-Jul-22 04:00N 59°03' E 010°41'815.5
2017-Jul-22 03:30N 58°55' E 010°42'815.4
2017-Jul-22 03:00N 58°47' E 010°45'815.6
2017-Jul-22 02:30N 58°39' E 010°47'815.6
2017-Jul-22 02:00N 58°32' E 010°51'816.0
2017-Jul-22 01:30N 58°24' E 010°57'816.2
2017-Jul-22 01:00N 58°17' E 011°03'816.0
2017-Jul-22 00:30N 58°10' E 011°09'916.4
2017-Jul-21 23:59N 58°01' E 011°14'816.3
2017-Jul-21 23:31N 57°54' E 011°19'816.0
2017-Jul-21 23:00N 57°47' E 011°24'816.1
2017-Jul-21 22:31N 57°39' E 011°29'816.2
2017-Jul-21 22:01N 57°32' E 011°34'816.2
2017-Jul-21 21:30N 57°24' E 011°41'816.2
2017-Jul-21 21:00N 57°17' E 011°48'1116.3
2017-Jul-21 20:21N 57°07' E 011°55'1015.8
2017-Jul-21 19:44N 56°58' E 012°01'915.8
2017-Jul-21 19:09N 56°49' E 012°06'3115.9
2017-Jul-21 17:11N 56°20' E 012°24'317.3
2017-Jul-21 17:00N 56°17' E 012°25'917.9
2017-Jul-21 16:30N 56°08' E 012°31'917.6
2017-Jul-21 16:00N 56°01' E 012°41'816.5
2017-Jul-21 15:30N 55°53' E 012°45'815.8
2017-Jul-21 15:00N 55°46' E 012°41'5 9.1
2017-Jul-21 14:30N 55°42' E 012°36'0 0.0
2017-Jul-21 14:00N 55°42' E 012°36'0 0.0
2017-Jul-21 13:30N 55°42' E 012°36'0 0.0
2017-Jul-21 13:00N 55°42' E 012°36'0 0.0
2017-Jul-21 12:30N 55°42' E 012°36'0 0.0
2017-Jul-21 12:00N 55°42' E 012°36'0 0.0
2017-Jul-21 11:30N 55°42' E 012°36'0 0.0
2017-Jul-21 11:00N 55°42' E 012°36'0 0.0
2017-Jul-21 10:30N 55°42' E 012°36'0 0.0
2017-Jul-21 10:00N 55°42' E 012°36'0 0.0
2017-Jul-21 09:30N 55°42' E 012°36'0 0.0
2017-Jul-21 09:00N 55°42' E 012°36'0 0.0
2017-Jul-21 08:30N 55°42' E 012°36'0 0.0
2017-Jul-21 08:00N 55°42' E 012°36'2 4.5
2017-Jul-21 07:31N 55°43' E 012°39'714.9
2017-Jul-21 07:00N 55°51' E 012°41'816.5
2017-Jul-21 06:31N 55°59' E 012°38'714.6
2017-Jul-21 06:01N 56°06' E 012°34'714.7
2017-Jul-21 05:30N 56°12' E 012°26'714.7
2017-Jul-21 05:00N 56°19' E 012°22'6016.4
2017-Jul-21 01:20N 57°17' E 011°50'515.9
2017-Jul-21 01:00N 57°21' E 011°46'816.0
2017-Jul-21 00:30N 57°28' E 011°38'816.2
2017-Jul-21 00:01N 57°35' E 011°32'816.0
2017-Jul-20 23:31N 57°43' E 011°26'816.5
2017-Jul-20 23:00N 57°50' E 011°20'816.6
2017-Jul-20 22:30N 57°58' E 011°15'816.3
2017-Jul-20 21:59N 58°06' E 011°10'915.9
2017-Jul-20 21:25N 58°15' E 011°04'615.3
2017-Jul-20 21:01N 58°21' E 011°00'815.1
2017-Jul-20 20:28N 58°28' E 010°55'715.5
2017-Jul-20 20:01N 58°35' E 010°50'815.5
2017-Jul-20 19:30N 58°42' E 010°45'815.8
2017-Jul-20 19:01N 58°50' E 010°43'816.5
2017-Jul-20 18:31N 58°58' E 010°41'816.6
2017-Jul-20 18:01N 59°06' E 010°39'816.8
2017-Jul-20 17:31N 59°15' E 010°37'816.7
2017-Jul-20 17:01N 59°23' E 010°34'816.0
2017-Jul-20 16:30N 59°31' E 010°35'815.7
2017-Jul-20 16:01N 59°39' E 010°37'713.2
2017-Jul-20 15:30N 59°45' E 010°33'714.9
2017-Jul-20 15:00N 59°52' E 010°38'4 4.0
2017-Jul-20 14:00N 59°54' E 010°45'0 0.0
2017-Jul-20 13:27N 59°54' E 010°45'0 0.0
2017-Jul-20 13:00N 59°54' E 010°45'0 0.0
2017-Jul-20 12:30N 59°54' E 010°45'0 0.0
2017-Jul-20 12:00N 59°54' E 010°45'0 0.0
2017-Jul-20 11:30N 59°54' E 010°45'0 0.0
2017-Jul-20 11:00N 59°54' E 010°45'0 0.0
2017-Jul-20 10:30N 59°54' E 010°45'0 0.0
2017-Jul-20 10:00N 59°54' E 010°45'0 0.0
2017-Jul-20 09:30N 59°54' E 010°45'0 0.0
2017-Jul-20 09:00N 59°54' E 010°45'0 0.0
2017-Jul-20 08:30N 59°54' E 010°45'0 0.0
2017-Jul-20 08:00N 59°54' E 010°45'1 2.3
2017-Jul-20 07:30N 59°54' E 010°42'714.8
2017-Jul-20 07:00N 59°48' E 010°35'714.6
2017-Jul-20 06:30N 59°41' E 010°37'714.8
2017-Jul-20 06:00N 59°33' E 010°38'815.8
2017-Jul-20 05:30N 59°26' E 010°34'815.9
2017-Jul-20 05:00N 59°18' E 010°36'815.7
2017-Jul-20 04:30N 59°10' E 010°39'815.3
2017-Jul-20 04:00N 59°02' E 010°40'815.3
2017-Jul-20 03:30N 58°55' E 010°42'815.6
2017-Jul-20 03:00N 58°47' E 010°43'816.6
2017-Jul-20 02:30N 58°39' E 010°45'917.2
2017-Jul-20 02:00N 58°31' E 010°50'917.1
2017-Jul-20 01:30N 58°23' E 010°58'917.2
2017-Jul-20 01:00N 58°15' E 011°03'917.1
2017-Jul-20 00:30N 58°07' E 011°09'917.0
2017-Jul-20 00:00N 57°59' E 011°14'816.9
2017-Jul-19 23:30N 57°51' E 011°20'816.3
2017-Jul-19 23:00N 57°43' E 011°26'816.2
2017-Jul-19 22:30N 57°36' E 011°31'816.4
2017-Jul-19 22:00N 57°28' E 011°36'816.0
2017-Jul-19 21:30N 57°21' E 011°44'816.3
2017-Jul-19 21:00N 57°14' E 011°51'816.5
2017-Jul-19 20:30N 57°06' E 011°56'815.9
2017-Jul-19 20:00N 56°59' E 012°01'815.6
2017-Jul-19 19:30N 56°51' E 012°05'815.7
2017-Jul-19 18:59N 56°43' E 012°09'815.5
2017-Jul-19 18:29N 56°36' E 012°13'1615.5
2017-Jul-19 17:25N 56°20' E 012°23'716.1
2017-Jul-19 17:00N 56°14' E 012°27'816.5
2017-Jul-19 16:30N 56°07' E 012°34'816.5
2017-Jul-19 16:00N 55°60' E 012°41'816.1
2017-Jul-19 15:30N 55°52' E 012°45'815.5
2017-Jul-19 15:00N 55°44' E 012°40'3 6.3
2017-Jul-19 14:29N 55°42' E 012°36'0 0.0
2017-Jul-19 13:59N 55°42' E 012°36'0 0.0
2017-Jul-19 13:29N 55°42' E 012°36'0 0.0
2017-Jul-19 12:59N 55°42' E 012°36'0 0.0
2017-Jul-19 12:29N 55°42' E 012°36'0 0.0
2017-Jul-19 11:59N 55°42' E 012°36'0 0.0
2017-Jul-19 11:29N 55°42' E 012°36'0 0.0
2017-Jul-19 10:59N 55°42' E 012°36'0 0.0
2017-Jul-19 10:29N 55°42' E 012°36'0 0.0
2017-Jul-19 09:59N 55°42' E 012°36'0 0.0
2017-Jul-19 09:29N 55°42' E 012°36'0 0.0
2017-Jul-19 08:59N 55°42' E 012°36'0 0.0
2017-Jul-19 08:29N 55°42' E 012°36'0 0.0
2017-Jul-19 07:59N 55°42' E 012°36'0 0.7
2017-Jul-19 07:30N 55°42' E 012°36'510.9
2017-Jul-19 07:00N 55°47' E 012°42'815.5
2017-Jul-19 06:30N 55°55' E 012°39'815.9
2017-Jul-19 06:00N 56°02' E 012°39'815.8
2017-Jul-19 05:30N 56°08' E 012°29'816.2
2017-Jul-19 05:00N 56°16' E 012°24'6417.2
2017-Jul-19 01:17N 57°17' E 011°49'517.4
2017-Jul-19 01:00N 57°21' E 011°45'917.2
2017-Jul-19 00:30N 57°29' E 011°37'917.4
2017-Jul-19 00:00N 57°37' E 011°31'917.0
2017-Jul-18 23:30N 57°44' E 011°25'816.6
2017-Jul-18 23:00N 57°52' E 011°19'816.4
2017-Jul-18 22:30N 57°60' E 011°12'816.1
2017-Jul-18 22:00N 58°07' E 011°06'815.4
2017-Jul-18 21:30N 58°15' E 011°04'714.8
2017-Jul-18 21:00N 58°22' E 010°59'714.6
2017-Jul-18 20:30N 58°28' E 010°53'814.9
2017-Jul-18 19:59N 58°36' E 010°49'715.2
2017-Jul-18 19:30N 58°43' E 010°46'815.7
2017-Jul-18 19:00N 58°51' E 010°44'816.0
2017-Jul-18 18:30N 58°58' E 010°42'816.4
2017-Jul-18 18:00N 59°07' E 010°39'816.7
2017-Jul-18 17:30N 59°15' E 010°37'816.7
2017-Jul-18 17:00N 59°23' E 010°34'815.8
2017-Jul-18 16:30N 59°31' E 010°35'816.1
2017-Jul-18 16:00N 59°39' E 010°37'713.4
2017-Jul-18 15:30N 59°45' E 010°33'815.1
2017-Jul-18 15:00N 59°52' E 010°38'4 3.8
2017-Jul-18 14:00N 59°54' E 010°45'0 0.0
2017-Jul-18 13:30N 59°54' E 010°45'0 0.0
2017-Jul-18 13:00N 59°54' E 010°45'0 0.0
2017-Jul-18 12:30N 59°54' E 010°45'0 0.0
2017-Jul-18 12:00N 59°54' E 010°45'0 0.0
2017-Jul-18 11:30N 59°54' E 010°45'0 0.0
2017-Jul-18 11:00N 59°54' E 010°45'0 0.0
2017-Jul-18 10:30N 59°54' E 010°45'0 0.0
2017-Jul-18 10:00N 59°54' E 010°45'0 0.0
2017-Jul-18 09:30N 59°54' E 010°45'0 0.0
2017-Jul-18 09:00N 59°54' E 010°45'0 0.0
2017-Jul-18 08:30N 59°54' E 010°45'0 0.0
2017-Jul-18 08:00N 59°54' E 010°45'0 0.5
2017-Jul-18 07:30N 59°54' E 010°44'613.3
2017-Jul-18 07:00N 59°49' E 010°35'714.5
2017-Jul-18 06:30N 59°42' E 010°36'714.4
2017-Jul-18 06:00N 59°35' E 010°38'816.2
2017-Jul-18 05:30N 59°27' E 010°34'816.0
2017-Jul-18 05:00N 59°19' E 010°36'816.3
2017-Jul-18 04:30N 59°11' E 010°39'917.1
2017-Jul-18 04:00N 59°03' E 010°40'816.8
2017-Jul-18 03:30N 58°55' E 010°44'816.8
2017-Jul-18 03:00N 58°46' E 010°46'918.1
2017-Jul-18 02:30N 58°37' E 010°50'918.4
2017-Jul-18 02:00N 58°28' E 010°54'1018.5
2017-Jul-18 01:29N 58°19' E 010°58'918.4
2017-Jul-18 01:00N 58°10' E 011°02'917.8
2017-Jul-18 00:30N 58°02' E 011°05'816.9
2017-Jul-18 00:00N 57°54' E 011°11'815.2
2017-Jul-17 23:30N 57°46' E 011°14'815.3
2017-Jul-17 23:01N 57°39' E 011°18'815.5
2017-Jul-17 22:30N 57°33' E 011°26'816.0
2017-Jul-17 22:00N 57°25' E 011°31'816.0
2017-Jul-17 21:30N 57°17' E 011°35'815.8
2017-Jul-17 21:00N 57°10' E 011°39'5915.4
2017-Jul-17 17:09N 56°16' E 012°25'316.5
2017-Jul-17 17:00N 56°14' E 012°27'815.8
2017-Jul-17 16:31N 56°07' E 012°33'714.1
2017-Jul-17 16:00N 56°01' E 012°40'714.5
2017-Jul-17 15:30N 55°54' E 012°44'714.6
2017-Jul-17 15:01N 55°47' E 012°42'611.9
2017-Jul-17 14:30N 55°42' E 012°36'0 0.1
2017-Jul-17 14:00N 55°42' E 012°36'0 0.0
2017-Jul-17 13:30N 55°42' E 012°36'0 0.0
2017-Jul-17 13:00N 55°42' E 012°36'0 0.0
2017-Jul-17 12:30N 55°42' E 012°36'0 0.0
2017-Jul-17 12:00N 55°42' E 012°36'0 0.0
2017-Jul-17 11:30N 55°42' E 012°36'0 0.0
2017-Jul-17 11:00N 55°42' E 012°36'0 0.0
2017-Jul-17 10:30N 55°42' E 012°36'0 0.0
2017-Jul-17 10:00N 55°42' E 012°36'0 0.0
2017-Jul-17 09:30N 55°42' E 012°36'0 0.0
2017-Jul-17 09:00N 55°42' E 012°36'0 0.0
2017-Jul-17 08:30N 55°42' E 012°36'0 0.0
2017-Jul-17 08:00N 55°42' E 012°36'0 0.8
2017-Jul-17 07:31N 55°42' E 012°36'611.1
2017-Jul-17 07:00N 55°47' E 012°42'815.1
2017-Jul-17 06:30N 55°54' E 012°39'816.1
2017-Jul-17 06:01N 56°02' E 012°39'817.0
2017-Jul-17 05:30N 56°09' E 012°29'917.1
2017-Jul-17 05:00N 56°17' E 012°24'  
Track history (hours):
 
Tides and Currents Weather Stations Pressure Air Temp Water Temp Dewpoint Dewpoint Depression Visibility Wind Speed Wind Dir Waves Ship Positions

Crown Of Scandinavia

Last reported at 2017-Jul-27 02:30 UTC. Time now 2017-Jul-27 02:37 UTC.
Position N 56°54' E 012°04'.

Length 171 m; draft 6.3 m.

Type: Ship. MMSI: 219592000.

Date/timePositionNaut miles runAvg speedWind from/ knotsBaromVisibWave heightAir tempDewpointWater temp
2017-Jul-27 02:30N 56°54' E 012°04'916.5
2017-Jul-27 01:58N 57°02' E 011°58'817.0
2017-Jul-27 01:31N 57°10' E 011°54'816.8
2017-Jul-27 01:00N 57°18' E 011°48'816.9
2017-Jul-27 00:30N 57°25' E 011°40'816.9
2017-Jul-27 00:00N 57°32' E 011°30'917.0
2017-Jul-26 23:30N 57°39' E 011°22'917.1
2017-Jul-26 23:00N 57°46' E 011°14'816.7
2017-Jul-26 22:30N 57°54' E 011°06'816.1
2017-Jul-26 21:59N 58°01' E 010°58'817.0
2017-Jul-26 21:30N 58°08' E 010°52'816.8
2017-Jul-26 21:00N 58°16' E 010°47'2615.5
2017-Jul-26 19:20N 58°42' E 010°35'516.4
2017-Jul-26 19:00N 58°47' E 010°35'816.9
2017-Jul-26 18:30N 58°55' E 010°36'816.7
2017-Jul-26 18:00N 59°04' E 010°37'816.8
2017-Jul-26 17:30N 59°12' E 010°38'816.9
2017-Jul-26 17:00N 59°20' E 010°35'816.7
2017-Jul-26 16:30N 59°29' E 010°34'816.3
2017-Jul-26 16:00N 59°36' E 010°38'714.2
2017-Jul-26 15:30N 59°43' E 010°34'715.1
2017-Jul-26 15:00N 59°51' E 010°37'5 5.2
2017-Jul-26 14:00N 59°54' E 010°45'0 0.0
2017-Jul-26 13:30N 59°54' E 010°45'0 0.0
2017-Jul-26 13:00N 59°54' E 010°45'0 0.0
2017-Jul-26 12:30N 59°54' E 010°45'0 0.0
2017-Jul-26 12:00N 59°54' E 010°45'0 0.0
2017-Jul-26 11:30N 59°54' E 010°45'0 0.0
2017-Jul-26 11:00N 59°54' E 010°45'0 0.0
2017-Jul-26 10:30N 59°54' E 010°45'0 0.0
2017-Jul-26 10:00N 59°54' E 010°45'0 0.0
2017-Jul-26 09:30N 59°54' E 010°45'0 0.0
2017-Jul-26 09:00N 59°54' E 010°45'0 0.0
2017-Jul-26 08:30N 59°54' E 010°45'0 0.0
2017-Jul-26 08:00N 59°54' E 010°45'0 0.6
2017-Jul-26 07:30N 59°54' E 010°44'612.6
2017-Jul-26 07:00N 59°49' E 010°35'714.4
2017-Jul-26 06:30N 59°42' E 010°36'714.3
2017-Jul-26 06:00N 59°35' E 010°38'815.1
2017-Jul-26 05:30N 59°28' E 010°34'815.0
2017-Jul-26 05:00N 59°21' E 010°36'815.4
2017-Jul-26 04:30N 59°13' E 010°38'815.4
2017-Jul-26 04:00N 59°05' E 010°40'815.6
2017-Jul-26 03:30N 58°58' E 010°42'815.7
2017-Jul-26 03:00N 58°50' E 010°44'815.7
2017-Jul-26 02:30N 58°42' E 010°45'816.3
2017-Jul-26 02:00N 58°34' E 010°50'917.7
2017-Jul-26 01:30N 58°26' E 010°55'917.3
2017-Jul-26 01:00N 58°18' E 011°00'917.2
2017-Jul-26 00:30N 58°09' E 011°06'917.0
2017-Jul-25 23:59N 58°01' E 011°10'816.9
2017-Jul-25 23:30N 57°53' E 011°14'816.8
2017-Jul-25 23:00N 57°45' E 011°19'816.6
2017-Jul-25 22:30N 57°37' E 011°24'816.4
2017-Jul-25 22:00N 57°29' E 011°28'816.7
2017-Jul-25 21:30N 57°21' E 011°33'916.7
2017-Jul-25 20:59N 57°13' E 011°38'816.6
2017-Jul-25 20:30N 57°05' E 011°42'5516.0
2017-Jul-25 17:06N 56°16' E 012°24'116.0
2017-Jul-25 17:00N 56°15' E 012°25'816.8
2017-Jul-25 16:30N 56°07' E 012°32'816.6
2017-Jul-25 16:00N 56°01' E 012°41'815.8
2017-Jul-25 15:30N 55°53' E 012°44'815.2
2017-Jul-25 15:00N 55°45' E 012°42'5 4.7
2017-Jul-25 14:00N 55°42' E 012°36'0 0.0
2017-Jul-25 13:30N 55°42' E 012°36'0 0.0
2017-Jul-25 13:00N 55°42' E 012°36'0 0.0
2017-Jul-25 12:30N 55°42' E 012°36'0 0.0
2017-Jul-25 12:00N 55°42' E 012°36'0 0.0
2017-Jul-25 11:27N 55°42' E 012°36'0 0.0
2017-Jul-25 11:00N 55°42' E 012°36'0 0.0
2017-Jul-25 10:30N 55°42' E 012°36'0 0.0
2017-Jul-25 10:00N 55°42' E 012°36'0 0.0
2017-Jul-25 09:30N 55°42' E 012°36'0 0.0
2017-Jul-25 09:00N 55°42' E 012°36'0 0.0
2017-Jul-25 08:30N 55°42' E 012°36'0 0.0
2017-Jul-25 08:00N 55°42' E 012°36'0 0.5
2017-Jul-25 07:30N 55°42' E 012°36'510.7
2017-Jul-25 07:00N 55°47' E 012°42'815.2
2017-Jul-25 06:30N 55°54' E 012°39'815.8
2017-Jul-25 06:00N 56°02' E 012°39'714.6
2017-Jul-25 05:30N 56°08' E 012°31'815.0
2017-Jul-25 05:00N 56°15' E 012°25'916.9
2017-Jul-25 04:30N 56°23' E 012°21'1016.8
2017-Jul-25 03:54N 56°32' E 012°15'1417.1
2017-Jul-25 03:03N 56°46' E 012°08'116.9
2017-Jul-25 03:00N 56°47' E 012°08'1316.7
2017-Jul-25 02:13N 56°59' E 011°59'1416.9
2017-Jul-25 01:23N 57°13' E 011°53'616.5
2017-Jul-25 01:00N 57°18' E 011°47'816.2
2017-Jul-25 00:30N 57°25' E 011°40'816.6
2017-Jul-25 00:00N 57°33' E 011°32'816.8
2017-Jul-24 23:30N 57°40' E 011°26'917.2
2017-Jul-24 23:00N 57°49' E 011°22'917.2
2017-Jul-24 22:30N 57°57' E 011°17'916.2
2017-Jul-24 21:58N 58°05' E 011°11'715.8
2017-Jul-24 21:31N 58°12' E 011°06'815.5
2017-Jul-24 21:00N 58°19' E 011°00'815.4
2017-Jul-24 20:30N 58°26' E 010°54'815.8
2017-Jul-24 20:00N 58°34' E 010°51'915.6
2017-Jul-24 19:26N 58°42' E 010°45'716.2
2017-Jul-24 19:00N 58°49' E 010°43'816.7
2017-Jul-24 18:30N 58°57' E 010°41'816.4
2017-Jul-24 18:00N 59°05' E 010°39'816.3
2017-Jul-24 17:30N 59°13' E 010°37'816.4
2017-Jul-24 17:00N 59°22' E 010°35'816.2
2017-Jul-24 16:30N 59°30' E 010°34'816.0
2017-Jul-24 16:00N 59°37' E 010°38'17 5.7
2017-Jul-24 13:00N 59°54' E 010°45'0 0.0
2017-Jul-24 12:30N 59°54' E 010°45'0 0.0
2017-Jul-24 12:00N 59°54' E 010°45'0 0.0
2017-Jul-24 11:30N 59°54' E 010°45'0 0.0
2017-Jul-24 11:00N 59°54' E 010°45'0 0.0
2017-Jul-24 10:30N 59°54' E 010°45'0 0.0
2017-Jul-24 10:00N 59°54' E 010°45'0 0.0
2017-Jul-24 09:30N 59°54' E 010°45'0 0.0
2017-Jul-24 09:00N 59°54' E 010°45'0 0.0
2017-Jul-24 08:30N 59°54' E 010°45'0 0.0
2017-Jul-24 08:00N 59°54' E 010°45'1 1.1
2017-Jul-24 07:30N 59°54' E 010°44'713.8
2017-Jul-24 07:00N 59°49' E 010°35'714.9
2017-Jul-24 06:31N 59°41' E 010°36'714.6
2017-Jul-24 06:00N 59°34' E 010°38'815.6
2017-Jul-24 05:30N 59°27' E 010°34'815.9
2017-Jul-24 05:00N 59°19' E 010°36'816.1
2017-Jul-24 04:30N 59°11' E 010°39'816.1
2017-Jul-24 04:00N 59°03' E 010°41'816.1
2017-Jul-24 03:31N 58°55' E 010°43'815.8
2017-Jul-24 03:00N 58°47' E 010°44'815.5
2017-Jul-24 02:30N 58°39' E 010°46'816.1
2017-Jul-24 02:00N 58°32' E 010°51'816.1
2017-Jul-24 01:30N 58°24' E 010°56'815.9
2017-Jul-24 01:00N 58°16' E 011°01'916.5
2017-Jul-24 00:29N 58°08' E 011°06'816.5
2017-Jul-24 00:00N 58°01' E 011°11'916.5
2017-Jul-23 23:28N 57°52' E 011°15'817.0
2017-Jul-23 23:00N 57°45' E 011°18'816.3
2017-Jul-23 22:30N 57°37' E 011°23'816.3
2017-Jul-23 22:00N 57°29' E 011°28'816.6
2017-Jul-23 21:30N 57°21' E 011°33'816.8
2017-Jul-23 21:00N 57°13' E 011°38'5516.5
2017-Jul-23 17:38N 56°22' E 012°16'817.0
2017-Jul-23 17:10N 56°15' E 012°23'317.9
2017-Jul-23 17:00N 56°13' E 012°26'918.6
2017-Jul-23 16:30N 56°05' E 012°36'816.9
2017-Jul-23 16:00N 55°58' E 012°43'815.9
2017-Jul-23 15:30N 55°50' E 012°44'714.8
2017-Jul-23 15:01N 55°43' E 012°39'2 3.4
2017-Jul-23 14:29N 55°42' E 012°36'0 0.0
2017-Jul-23 13:59N 55°42' E 012°36'0 0.0
2017-Jul-23 13:29N 55°42' E 012°36'0 0.0
2017-Jul-23 12:59N 55°42' E 012°36'0 0.0
2017-Jul-23 12:29N 55°42' E 012°36'0 0.0
2017-Jul-23 11:59N 55°42' E 012°36'0 0.0
2017-Jul-23 11:29N 55°42' E 012°36'0 0.0
2017-Jul-23 10:59N 55°42' E 012°36'0 0.0
2017-Jul-23 10:29N 55°42' E 012°36'0 0.0
2017-Jul-23 09:59N 55°42' E 012°36'0 0.0
2017-Jul-23 09:29N 55°42' E 012°36'0 0.0
2017-Jul-23 08:59N 55°42' E 012°36'0 0.0
2017-Jul-23 08:29N 55°42' E 012°36'0 0.0
2017-Jul-23 07:59N 55°42' E 012°36'2 3.8
2017-Jul-23 07:30N 55°43' E 012°38'714.4
2017-Jul-23 07:00N 55°50' E 012°41'815.3
2017-Jul-23 06:31N 55°58' E 012°40'714.6
2017-Jul-23 06:00N 56°05' E 012°36'713.7
2017-Jul-23 05:30N 56°10' E 012°28'714.0
2017-Jul-23 05:00N 56°17' E 012°24'915.2
2017-Jul-23 04:26N 56°25' E 012°19'716.1
2017-Jul-23 04:00N 56°32' E 012°16'816.3
2017-Jul-23 03:30N 56°39' E 012°11'816.7
2017-Jul-23 03:00N 56°47' E 012°06'2616.6
2017-Jul-23 01:27N 57°12' E 011°53'716.2
2017-Jul-23 01:00N 57°19' E 011°47'816.3
2017-Jul-23 00:30N 57°26' E 011°40'816.7
2017-Jul-23 00:00N 57°33' E 011°33'816.8
2017-Jul-22 23:30N 57°41' E 011°28'816.5
2017-Jul-22 23:00N 57°49' E 011°22'816.4
2017-Jul-22 22:30N 57°57' E 011°17'815.8
2017-Jul-22 22:00N 58°04' E 011°12'815.9
2017-Jul-22 21:30N 58°12' E 011°06'816.4
2017-Jul-22 21:00N 58°19' E 011°01'915.8
2017-Jul-22 20:28N 58°27' E 010°56'716.0
2017-Jul-22 20:00N 58°34' E 010°51'816.5
2017-Jul-22 19:30N 58°42' E 010°46'917.1
2017-Jul-22 19:00N 58°50' E 010°44'917.0
2017-Jul-22 18:30N 58°59' E 010°42'817.0
2017-Jul-22 18:00N 59°07' E 010°39'816.9
2017-Jul-22 17:30N 59°15' E 010°37'816.9
2017-Jul-22 17:00N 59°24' E 010°34'816.5
2017-Jul-22 16:30N 59°32' E 010°36'815.2
2017-Jul-22 16:00N 59°40' E 010°37'713.8
2017-Jul-22 15:30N 59°46' E 010°34'815.7
2017-Jul-22 15:01N 59°53' E 010°40'2 2.3
2017-Jul-22 14:00N 59°54' E 010°45'0 0.0
2017-Jul-22 13:29N 59°54' E 010°45'0 0.0
2017-Jul-22 12:56N 59°54' E 010°45'0 0.0
2017-Jul-22 12:29N 59°54' E 010°45'0 0.0
2017-Jul-22 11:59N 59°54' E 010°45'0 0.0
2017-Jul-22 11:29N 59°54' E 010°45'0 0.0
2017-Jul-22 10:59N 59°54' E 010°45'0 0.0
2017-Jul-22 10:29N 59°54' E 010°45'0 0.0
2017-Jul-22 09:59N 59°54' E 010°45'0 0.0
2017-Jul-22 09:29N 59°54' E 010°45'0 0.0
2017-Jul-22 08:59N 59°54' E 010°45'0 0.0
2017-Jul-22 08:29N 59°54' E 010°45'0 0.0
2017-Jul-22 07:59N 59°54' E 010°45'1 2.8
2017-Jul-22 07:30N 59°54' E 010°42'714.7
2017-Jul-22 07:00N 59°48' E 010°35'714.6
2017-Jul-22 06:30N 59°40' E 010°37'714.8
2017-Jul-22 06:00N 59°33' E 010°37'815.7
2017-Jul-22 05:30N 59°25' E 010°34'815.4
2017-Jul-22 05:00N 59°18' E 010°37'815.4
2017-Jul-22 04:30N 59°10' E 010°39'815.3
2017-Jul-22 04:00N 59°03' E 010°41'815.5
2017-Jul-22 03:30N 58°55' E 010°42'815.4
2017-Jul-22 03:00N 58°47' E 010°45'815.6
2017-Jul-22 02:30N 58°39' E 010°47'815.6
2017-Jul-22 02:00N 58°32' E 010°51'816.0
2017-Jul-22 01:30N 58°24' E 010°57'816.2
2017-Jul-22 01:00N 58°17' E 011°03'816.0
2017-Jul-22 00:30N 58°10' E 011°09'916.4
2017-Jul-21 23:59N 58°01' E 011°14'816.3
2017-Jul-21 23:31N 57°54' E 011°19'816.0
2017-Jul-21 23:00N 57°47' E 011°24'816.1
2017-Jul-21 22:31N 57°39' E 011°29'816.2
2017-Jul-21 22:01N 57°32' E 011°34'816.2
2017-Jul-21 21:30N 57°24' E 011°41'816.2
2017-Jul-21 21:00N 57°17' E 011°48'1116.3
2017-Jul-21 20:21N 57°07' E 011°55'1015.8
2017-Jul-21 19:44N 56°58' E 012°01'915.8
2017-Jul-21 19:09N 56°49' E 012°06'3115.9
2017-Jul-21 17:11N 56°20' E 012°24'317.3
2017-Jul-21 17:00N 56°17' E 012°25'917.9
2017-Jul-21 16:30N 56°08' E 012°31'917.6
2017-Jul-21 16:00N 56°01' E 012°41'816.5
2017-Jul-21 15:30N 55°53' E 012°45'815.8
2017-Jul-21 15:00N 55°46' E 012°41'5 9.1
2017-Jul-21 14:30N 55°42' E 012°36'0 0.0
2017-Jul-21 14:00N 55°42' E 012°36'0 0.0
2017-Jul-21 13:30N 55°42' E 012°36'0 0.0
2017-Jul-21 13:00N 55°42' E 012°36'0 0.0
2017-Jul-21 12:30N 55°42' E 012°36'0 0.0
2017-Jul-21 12:00N 55°42' E 012°36'0 0.0
2017-Jul-21 11:30N 55°42' E 012°36'0 0.0
2017-Jul-21 11:00N 55°42' E 012°36'0 0.0
2017-Jul-21 10:30N 55°42' E 012°36'0 0.0
2017-Jul-21 10:00N 55°42' E 012°36'0 0.0
2017-Jul-21 09:30N 55°42' E 012°36'0 0.0
2017-Jul-21 09:00N 55°42' E 012°36'0 0.0
2017-Jul-21 08:30N 55°42' E 012°36'0 0.0
2017-Jul-21 08:00N 55°42' E 012°36'2 4.5
2017-Jul-21 07:31N 55°43' E 012°39'714.9
2017-Jul-21 07:00N 55°51' E 012°41'816.5
2017-Jul-21 06:31N 55°59' E 012°38'714.6
2017-Jul-21 06:01N 56°06' E 012°34'714.7
2017-Jul-21 05:30N 56°12' E 012°26'714.7
2017-Jul-21 05:00N 56°19' E 012°22'6016.4
2017-Jul-21 01:20N 57°17' E 011°50'515.9
2017-Jul-21 01:00N 57°21' E 011°46'816.0
2017-Jul-21 00:30N 57°28' E 011°38'816.2
2017-Jul-21 00:01N 57°35' E 011°32'816.0
2017-Jul-20 23:31N 57°43' E 011°26'816.5
2017-Jul-20 23:00N 57°50' E 011°20'816.6
2017-Jul-20 22:30N 57°58' E 011°15'816.3
2017-Jul-20 21:59N 58°06' E 011°10'915.9
2017-Jul-20 21:25N 58°15' E 011°04'615.3
2017-Jul-20 21:01N 58°21' E 011°00'815.1
2017-Jul-20 20:28N 58°28' E 010°55'715.5
2017-Jul-20 20:01N 58°35' E 010°50'815.5
2017-Jul-20 19:30N 58°42' E 010°45'815.8
2017-Jul-20 19:01N 58°50' E 010°43'816.5
2017-Jul-20 18:31N 58°58' E 010°41'816.6
2017-Jul-20 18:01N 59°06' E 010°39'816.8
2017-Jul-20 17:31N 59°15' E 010°37'816.7
2017-Jul-20 17:01N 59°23' E 010°34'816.0
2017-Jul-20 16:30N 59°31' E 010°35'815.7
2017-Jul-20 16:01N 59°39' E 010°37'713.2
2017-Jul-20 15:30N 59°45' E 010°33'714.9
2017-Jul-20 15:00N 59°52' E 010°38'4 4.0
2017-Jul-20 14:00N 59°54' E 010°45'0 0.0
2017-Jul-20 13:27N 59°54' E 010°45'0 0.0
2017-Jul-20 13:00N 59°54' E 010°45'0 0.0
2017-Jul-20 12:30N 59°54' E 010°45'0 0.0
2017-Jul-20 12:00N 59°54' E 010°45'0 0.0
2017-Jul-20 11:30N 59°54' E 010°45'0 0.0
2017-Jul-20 11:00N 59°54' E 010°45'0 0.0
2017-Jul-20 10:30N 59°54' E 010°45'0 0.0
2017-Jul-20 10:00N 59°54' E 010°45'0 0.0
2017-Jul-20 09:30N 59°54' E 010°45'0 0.0
2017-Jul-20 09:00N 59°54' E 010°45'0 0.0
2017-Jul-20 08:30N 59°54' E 010°45'0 0.0
2017-Jul-20 08:00N 59°54' E 010°45'1 2.3
2017-Jul-20 07:30N 59°54' E 010°42'714.8
2017-Jul-20 07:00N 59°48' E 010°35'714.6
2017-Jul-20 06:30N 59°41' E 010°37'714.8
2017-Jul-20 06:00N 59°33' E 010°38'815.8
2017-Jul-20 05:30N 59°26' E 010°34'815.9
2017-Jul-20 05:00N 59°18' E 010°36'815.7
2017-Jul-20 04:30N 59°10' E 010°39'815.3
2017-Jul-20 04:00N 59°02' E 010°40'815.3
2017-Jul-20 03:30N 58°55' E 010°42'815.6
2017-Jul-20 03:00N 58°47' E 010°43'816.6
2017-Jul-20 02:30N 58°39' E 010°45'917.2
2017-Jul-20 02:00N 58°31' E 010°50'917.1
2017-Jul-20 01:30N 58°23' E 010°58'917.2
2017-Jul-20 01:00N 58°15' E 011°03'917.1
2017-Jul-20 00:30N 58°07' E 011°09'917.0
2017-Jul-20 00:00N 57°59' E 011°14'816.9
2017-Jul-19 23:30N 57°51' E 011°20'816.3
2017-Jul-19 23:00N 57°43' E 011°26'816.2
2017-Jul-19 22:30N 57°36' E 011°31'816.4
2017-Jul-19 22:00N 57°28' E 011°36'816.0
2017-Jul-19 21:30N 57°21' E 011°44'816.3
2017-Jul-19 21:00N 57°14' E 011°51'816.5
2017-Jul-19 20:30N 57°06' E 011°56'815.9
2017-Jul-19 20:00N 56°59' E 012°01'815.6
2017-Jul-19 19:30N 56°51' E 012°05'815.7
2017-Jul-19 18:59N 56°43' E 012°09'815.5
2017-Jul-19 18:29N 56°36' E 012°13'1615.5
2017-Jul-19 17:25N 56°20' E 012°23'716.1
2017-Jul-19 17:00N 56°14' E 012°27'816.5
2017-Jul-19 16:30N 56°07' E 012°34'816.5
2017-Jul-19 16:00N 55°60' E 012°41'816.1
2017-Jul-19 15:30N 55°52' E 012°45'815.5
2017-Jul-19 15:00N 55°44' E 012°40'3 6.3
2017-Jul-19 14:29N 55°42' E 012°36'0 0.0
2017-Jul-19 13:59N 55°42' E 012°36'0 0.0
2017-Jul-19 13:29N 55°42' E 012°36'0 0.0
2017-Jul-19 12:59N 55°42' E 012°36'0 0.0
2017-Jul-19 12:29N 55°42' E 012°36'0 0.0
2017-Jul-19 11:59N 55°42' E 012°36'0 0.0
2017-Jul-19 11:29N 55°42' E 012°36'0 0.0
2017-Jul-19 10:59N 55°42' E 012°36'0 0.0
2017-Jul-19 10:29N 55°42' E 012°36'0 0.0
2017-Jul-19 09:59N 55°42' E 012°36'0 0.0
2017-Jul-19 09:29N 55°42' E 012°36'0 0.0
2017-Jul-19 08:59N 55°42' E 012°36'0 0.0
2017-Jul-19 08:29N 55°42' E 012°36'0 0.0
2017-Jul-19 07:59N 55°42' E 012°36'0 0.7
2017-Jul-19 07:30N 55°42' E 012°36'510.9
2017-Jul-19 07:00N 55°47' E 012°42'815.5
2017-Jul-19 06:30N 55°55' E 012°39'815.9
2017-Jul-19 06:00N 56°02' E 012°39'815.8
2017-Jul-19 05:30N 56°08' E 012°29'816.2
2017-Jul-19 05:00N 56°16' E 012°24'6417.2
2017-Jul-19 01:17N 57°17' E 011°49'517.4
2017-Jul-19 01:00N 57°21' E 011°45'917.2
2017-Jul-19 00:30N 57°29' E 011°37'917.4
2017-Jul-19 00:00N 57°37' E 011°31'917.0
2017-Jul-18 23:30N 57°44' E 011°25'816.6
2017-Jul-18 23:00N 57°52' E 011°19'816.4
2017-Jul-18 22:30N 57°60' E 011°12'816.1
2017-Jul-18 22:00N 58°07' E 011°06'815.4
2017-Jul-18 21:30N 58°15' E 011°04'714.8
2017-Jul-18 21:00N 58°22' E 010°59'714.6
2017-Jul-18 20:30N 58°28' E 010°53'814.9
2017-Jul-18 19:59N 58°36' E 010°49'715.2
2017-Jul-18 19:30N 58°43' E 010°46'815.7
2017-Jul-18 19:00N 58°51' E 010°44'816.0
2017-Jul-18 18:30N 58°58' E 010°42'816.4
2017-Jul-18 18:00N 59°07' E 010°39'816.7
2017-Jul-18 17:30N 59°15' E 010°37'816.7
2017-Jul-18 17:00N 59°23' E 010°34'815.8
2017-Jul-18 16:30N 59°31' E 010°35'816.1
2017-Jul-18 16:00N 59°39' E 010°37'713.4
2017-Jul-18 15:30N 59°45' E 010°33'815.1
2017-Jul-18 15:00N 59°52' E 010°38'4 3.8
2017-Jul-18 14:00N 59°54' E 010°45'0 0.0
2017-Jul-18 13:30N 59°54' E 010°45'0 0.0
2017-Jul-18 13:00N 59°54' E 010°45'0 0.0
2017-Jul-18 12:30N 59°54' E 010°45'0 0.0
2017-Jul-18 12:00N 59°54' E 010°45'0 0.0
2017-Jul-18 11:30N 59°54' E 010°45'0 0.0
2017-Jul-18 11:00N 59°54' E 010°45'0 0.0
2017-Jul-18 10:30N 59°54' E 010°45'0 0.0
2017-Jul-18 10:00N 59°54' E 010°45'0 0.0
2017-Jul-18 09:30N 59°54' E 010°45'0 0.0
2017-Jul-18 09:00N 59°54' E 010°45'0 0.0
2017-Jul-18 08:30N 59°54' E 010°45'0 0.0
2017-Jul-18 08:00N 59°54' E 010°45'0 0.5
2017-Jul-18 07:30N 59°54' E 010°44'613.3
2017-Jul-18 07:00N 59°49' E 010°35'714.5
2017-Jul-18 06:30N 59°42' E 010°36'714.4
2017-Jul-18 06:00N 59°35' E 010°38'816.2
2017-Jul-18 05:30N 59°27' E 010°34'816.0
2017-Jul-18 05:00N 59°19' E 010°36'816.3
2017-Jul-18 04:30N 59°11' E 010°39'917.1
2017-Jul-18 04:00N 59°03' E 010°40'816.8
2017-Jul-18 03:30N 58°55' E 010°44'816.8
2017-Jul-18 03:00N 58°46' E 010°46'918.1
2017-Jul-18 02:30N 58°37' E 010°50'918.4
2017-Jul-18 02:00N 58°28' E 010°54'1018.5
2017-Jul-18 01:29N 58°19' E 010°58'918.4
2017-Jul-18 01:00N 58°10' E 011°02'917.8
2017-Jul-18 00:30N 58°02' E 011°05'816.9
2017-Jul-18 00:00N 57°54' E 011°11'815.2
2017-Jul-17 23:30N 57°46' E 011°14'815.3
2017-Jul-17 23:01N 57°39' E 011°18'815.5
2017-Jul-17 22:30N 57°33' E 011°26'816.0
2017-Jul-17 22:00N 57°25' E 011°31'816.0
2017-Jul-17 21:30N 57°17' E 011°35'815.8
2017-Jul-17 21:00N 57°10' E 011°39'5915.4
2017-Jul-17 17:09N 56°16' E 012°25'316.5
2017-Jul-17 17:00N 56°14' E 012°27'815.8
2017-Jul-17 16:31N 56°07' E 012°33'714.1
2017-Jul-17 16:00N 56°01' E 012°40'714.5
2017-Jul-17 15:30N 55°54' E 012°44'714.6
2017-Jul-17 15:01N 55°47' E 012°42'611.9
2017-Jul-17 14:30N 55°42' E 012°36'0 0.1
2017-Jul-17 14:00N 55°42' E 012°36'0 0.0
2017-Jul-17 13:30N 55°42' E 012°36'0 0.0
2017-Jul-17 13:00N 55°42' E 012°36'0 0.0
2017-Jul-17 12:30N 55°42' E 012°36'0 0.0
2017-Jul-17 12:00N 55°42' E 012°36'0 0.0
2017-Jul-17 11:30N 55°42' E 012°36'0 0.0
2017-Jul-17 11:00N 55°42' E 012°36'0 0.0
2017-Jul-17 10:30N 55°42' E 012°36'0 0.0
2017-Jul-17 10:00N 55°42' E 012°36'0 0.0
2017-Jul-17 09:30N 55°42' E 012°36'0 0.0
2017-Jul-17 09:00N 55°42' E 012°36'0 0.0
2017-Jul-17 08:30N 55°42' E 012°36'0 0.0
2017-Jul-17 08:00N 55°42' E 012°36'0 0.8
2017-Jul-17 07:31N 55°42' E 012°36'611.1
2017-Jul-17 07:00N 55°47' E 012°42'815.1
2017-Jul-17 06:30N 55°54' E 012°39'816.1
2017-Jul-17 06:01N 56°02' E 012°39'817.0
2017-Jul-17 05:30N 56°09' E 012°29'917.1
2017-Jul-17 05:00N 56°17' E 012°24'  

Dump ship's entire track history